createdAt,value
2023-04-01T00:00:32.047Z,93731.00
2023-04-01T00:01:32.142Z,93729.00
2023-04-01T00:02:32.174Z,93725.00
2023-04-01T00:03:32.377Z,93725.00
2023-04-01T00:04:32.248Z,93725.00
2023-04-01T00:05:32.467Z,93725.00
2023-04-01T00:06:32.327Z,93723.00
2023-04-01T00:07:32.412Z,93723.00
2023-04-01T00:08:32.549Z,93723.00
2023-04-01T00:09:32.467Z,93723.00
2023-04-01T00:10:32.650Z,93727.00
2023-04-01T00:11:32.593Z,93729.00
2023-04-01T00:12:32.647Z,93731.00
2023-04-01T00:13:32.688Z,93729.00
2023-04-01T00:14:32.743Z,93727.00
2023-04-01T00:15:32.992Z,93727.00
2023-04-01T00:16:32.875Z,93727.00
2023-04-01T00:17:32.953Z,93731.00
2023-04-01T00:18:32.973Z,93729.00
2023-04-01T00:19:32.982Z,93731.00
2023-04-01T00:20:33.041Z,93733.00
2023-04-01T00:21:33.101Z,93729.00
2023-04-01T00:22:33.165Z,93733.00
2023-04-01T00:23:33.231Z,93727.00
2023-04-01T00:24:33.312Z,93727.00
2023-04-01T00:25:33.450Z,93723.00
2023-04-01T00:26:33.333Z,93723.00
2023-04-01T00:27:33.453Z,93715.00
2023-04-01T00:28:33.458Z,93719.00
2023-04-01T00:29:33.504Z,93719.00
2023-04-01T00:30:33.566Z,93719.00
2023-04-01T00:31:33.710Z,93715.00
2023-04-01T00:32:33.693Z,93715.00
2023-04-01T00:33:33.738Z,93713.00
2023-04-01T00:34:33.819Z,93713.00
2023-04-01T00:35:34.115Z,93715.00
2023-04-01T00:36:33.980Z,93719.00
2023-04-01T00:37:33.979Z,93721.00
2023-04-01T00:38:34.051Z,93725.00
2023-04-01T00:39:34.091Z,93715.00
2023-04-01T00:40:34.100Z,93715.00
2023-04-01T00:41:34.156Z,93713.00
2023-04-01T00:42:34.260Z,93715.00
2023-04-01T00:43:34.287Z,93711.00
2023-04-01T00:44:34.331Z,93715.00
2023-04-01T00:45:34.568Z,93713.00
2023-04-01T00:46:35.402Z,93708.00
2023-04-01T00:47:34.547Z,93708.00
2023-04-01T00:48:34.615Z,93706.00
2023-04-01T00:49:34.634Z,93711.00
2023-04-01T00:50:34.685Z,93717.00
2023-04-01T00:51:34.893Z,93715.00
2023-04-01T00:52:34.750Z,93711.00
2023-04-01T00:53:34.801Z,93713.00
2023-04-01T00:54:34.883Z,93713.00
2023-04-01T00:55:34.990Z,93715.00
2023-04-01T00:56:35.073Z,93715.00
2023-04-01T00:57:35.036Z,93715.00
2023-04-01T00:58:35.113Z,93715.00
2023-04-01T00:59:35.211Z,93713.00
2023-04-01T01:00:35.228Z,93711.00
2023-04-01T01:01:35.281Z,93709.00
2023-04-01T01:02:35.509Z,93713.00
2023-04-01T01:03:35.384Z,93713.00
2023-04-01T01:04:35.458Z,93713.00
2023-04-01T01:05:48.073Z,93711.00
2023-04-01T01:06:36.591Z,93704.00
2023-04-01T01:07:35.472Z,93702.00
2023-04-01T01:08:35.484Z,93700.00
2023-04-01T01:09:35.482Z,93702.00
2023-04-01T01:10:35.466Z,93702.00
2023-04-01T01:11:42.609Z,93704.00
2023-04-01T01:12:36.469Z,93708.00
2023-04-01T01:13:35.454Z,93704.00
2023-04-01T01:14:35.459Z,93702.00
2023-04-01T01:15:35.470Z,93702.00
2023-04-01T01:16:35.520Z,93698.00
2023-04-01T01:17:35.434Z,93700.00
2023-04-01T01:18:35.380Z,93700.00
2023-04-01T01:19:35.390Z,93698.00
2023-04-01T01:20:35.453Z,93698.00
2023-04-01T01:21:35.508Z,93698.00
2023-04-01T01:22:35.675Z,93696.00
2023-04-01T01:23:36.411Z,93692.00
2023-04-01T01:24:35.691Z,93692.00
2023-04-01T01:25:35.740Z,93692.00
2023-04-01T01:26:36.424Z,93696.00
2023-04-01T01:27:35.852Z,93698.00
2023-04-01T01:28:35.926Z,93696.00
2023-04-01T01:29:36.024Z,93694.00
2023-04-01T01:30:36.105Z,93696.00
2023-04-01T01:31:36.091Z,93696.00
2023-04-01T01:32:36.171Z,93698.00
2023-04-01T01:33:36.306Z,93698.00
2023-04-01T01:34:36.302Z,93700.00
2023-04-01T01:35:36.475Z,93698.00
2023-04-01T01:36:36.454Z,93698.00
2023-04-01T01:37:36.430Z,93696.00
2023-04-01T01:38:36.541Z,93694.00
2023-04-01T01:39:36.605Z,93696.00
2023-04-01T01:40:36.688Z,93696.00
2023-04-01T01:41:36.740Z,93696.00
2023-04-01T01:42:36.733Z,93692.00
2023-04-01T01:43:36.836Z,93692.00
2023-04-01T01:44:36.886Z,93694.00
2023-04-01T01:45:36.969Z,93690.00
2023-04-01T01:46:37.119Z,93690.00
2023-04-01T01:47:37.095Z,93688.00
2023-04-01T01:48:37.087Z,93684.00
2023-04-01T01:49:37.179Z,93684.00
2023-04-01T01:50:37.241Z,93682.00
2023-04-01T01:51:37.298Z,93682.00
2023-04-01T01:52:37.366Z,93684.00
2023-04-01T01:53:37.457Z,93684.00
2023-04-01T01:54:37.457Z,93686.00
2023-04-01T01:55:37.540Z,93684.00
2023-04-01T01:56:37.610Z,93682.00
2023-04-01T01:57:37.729Z,93682.00
2023-04-01T01:58:37.771Z,93678.00
2023-04-01T01:59:37.776Z,93678.00
2023-04-01T02:00:37.874Z,93680.00
2023-04-01T02:01:37.941Z,93680.00
2023-04-01T02:02:37.948Z,93678.00
2023-04-01T02:03:38.015Z,93674.00
2023-04-01T02:04:38.132Z,93670.00
2023-04-01T02:05:38.130Z,93674.00
2023-04-01T02:06:38.259Z,93672.00
2023-04-01T02:07:38.320Z,93672.00
2023-04-01T02:08:38.317Z,93672.00
2023-04-01T02:09:38.450Z,93672.00
2023-04-01T02:10:38.380Z,93672.00
2023-04-01T02:11:38.497Z,93668.00
2023-04-01T02:12:38.574Z,93666.00
2023-04-01T02:13:38.607Z,93664.00
2023-04-01T02:14:38.639Z,93670.00
2023-04-01T02:15:38.768Z,93668.00
2023-04-01T02:16:38.832Z,93672.00
2023-04-01T02:17:38.901Z,93674.00
2023-04-01T02:18:38.895Z,93674.00
2023-04-01T02:19:38.971Z,93674.00
2023-04-01T02:20:38.972Z,93678.00
2023-04-01T02:21:39.086Z,93680.00
2023-04-01T02:22:39.159Z,93684.00
2023-04-01T02:23:39.169Z,93686.00
2023-04-01T02:24:39.371Z,93688.00
2023-04-01T02:25:39.258Z,93690.00
2023-04-01T02:26:39.324Z,93692.00
2023-04-01T02:27:39.361Z,93694.00
2023-04-01T02:28:39.451Z,93694.00
2023-04-01T02:29:39.523Z,93696.00
2023-04-01T02:30:39.507Z,93694.00
2023-04-01T02:31:39.615Z,93690.00
2023-04-01T02:32:39.655Z,93690.00
2023-04-01T02:33:39.784Z,93692.00
2023-04-01T02:34:39.744Z,93694.00
2023-04-01T02:35:39.842Z,93694.00
2023-04-01T02:36:39.842Z,93696.00
2023-04-01T02:37:40.619Z,93696.00
2023-04-01T02:38:39.981Z,93698.00
2023-04-01T02:39:40.034Z,93704.00
2023-04-01T02:40:40.033Z,93696.00
2023-04-01T02:41:40.081Z,93698.00
2023-04-01T02:42:40.182Z,93696.00
2023-04-01T02:43:40.219Z,93692.00
2023-04-01T02:44:40.305Z,93690.00
2023-04-01T02:45:40.381Z,93692.00
2023-04-01T02:46:40.387Z,93694.00
2023-04-01T02:47:40.499Z,93694.00
2023-04-01T02:48:40.470Z,93694.00
2023-04-01T02:49:40.532Z,93698.00
2023-04-01T02:50:40.678Z,93700.00
2023-04-01T02:51:40.687Z,93702.00
2023-04-01T02:52:40.736Z,93702.00
2023-04-01T02:53:40.775Z,93706.00
2023-04-01T02:54:40.840Z,93704.00
2023-04-01T02:55:40.835Z,93708.00
2023-04-01T02:56:40.903Z,93711.00
2023-04-01T02:57:40.966Z,93709.00
2023-04-01T02:58:41.007Z,93711.00
2023-04-01T02:59:41.046Z,93713.00
2023-04-01T03:00:41.117Z,93713.00
2023-04-01T03:01:41.350Z,93717.00
2023-04-01T03:02:41.427Z,93719.00
2023-04-01T03:03:41.308Z,93725.00
2023-04-01T03:04:41.311Z,93725.00
2023-04-01T03:05:41.391Z,93727.00
2023-04-01T03:06:41.424Z,93725.00
2023-04-01T03:07:41.473Z,93727.00
2023-04-01T03:08:41.584Z,93729.00
2023-04-01T03:09:41.616Z,93729.00
2023-04-01T03:10:41.706Z,93731.00
2023-04-01T03:11:41.678Z,93735.00
2023-04-01T03:12:41.726Z,93737.00
2023-04-01T03:13:41.781Z,93739.00
2023-04-01T03:14:41.895Z,93743.00
2023-04-01T03:15:41.906Z,93741.00
2023-04-01T03:16:41.980Z,93741.00
2023-04-01T03:17:42.044Z,93737.00
2023-04-01T03:18:42.063Z,93741.00
2023-04-01T03:19:42.189Z,93747.00
2023-04-01T03:20:42.152Z,93747.00
2023-04-01T03:21:42.183Z,93747.00
2023-04-01T03:22:43.154Z,93745.00
2023-04-01T03:23:42.296Z,93749.00
2023-04-01T03:24:42.424Z,93753.00
2023-04-01T03:25:42.480Z,93759.00
2023-04-01T03:26:42.489Z,93759.00
2023-04-01T03:27:42.534Z,93759.00
2023-04-01T03:28:42.650Z,93751.00
2023-04-01T03:29:42.726Z,93749.00
2023-04-01T03:30:42.762Z,93749.00
2023-04-01T03:31:42.837Z,93749.00
2023-04-01T03:32:42.859Z,93749.00
2023-04-01T03:33:42.895Z,93751.00
2023-04-01T03:34:42.944Z,93751.00
2023-04-01T03:35:42.997Z,93753.00
2023-04-01T03:36:43.109Z,93749.00
2023-04-01T03:37:43.233Z,93751.00
2023-04-01T03:38:43.174Z,93755.00
2023-04-01T03:39:44.629Z,93755.00
2023-04-01T03:40:43.318Z,93755.00
2023-04-01T03:41:43.354Z,93755.00
2023-04-01T03:42:43.515Z,93755.00
2023-04-01T03:43:43.536Z,93755.00
2023-04-01T03:44:43.574Z,93753.00
2023-04-01T03:45:43.638Z,93753.00
2023-04-01T03:46:43.806Z,93751.00
2023-04-01T03:47:43.798Z,93753.00
2023-04-01T03:48:43.798Z,93755.00
2023-04-01T03:49:43.901Z,93755.00
2023-04-01T03:50:43.880Z,93755.00
2023-04-01T03:51:43.986Z,93755.00
2023-04-01T03:52:44.036Z,93757.00
2023-04-01T03:53:44.114Z,93757.00
2023-04-01T03:54:44.102Z,93753.00
2023-04-01T03:55:44.175Z,93755.00
2023-04-01T03:56:44.216Z,93759.00
2023-04-01T03:57:44.283Z,93759.00
2023-04-01T03:58:44.380Z,93759.00
2023-04-01T03:59:44.424Z,93755.00
2023-04-01T04:00:44.449Z,93755.00
2023-04-01T04:01:44.509Z,93757.00
2023-04-01T04:02:44.705Z,93757.00
2023-04-01T04:03:44.709Z,93757.00
2023-04-01T04:04:44.857Z,93757.00
2023-04-01T04:05:44.793Z,93759.00
2023-04-01T04:06:44.802Z,93760.00
2023-04-01T04:07:44.918Z,93764.00
2023-04-01T04:08:44.956Z,93766.00
2023-04-01T04:09:44.974Z,93764.00
2023-04-01T04:10:45.022Z,93766.00
2023-04-01T04:11:45.090Z,93766.00
2023-04-01T04:12:45.204Z,93762.00
2023-04-01T04:13:45.265Z,93766.00
2023-04-01T04:14:45.262Z,93764.00
2023-04-01T04:15:45.362Z,93762.00
2023-04-01T04:16:45.383Z,93766.00
2023-04-01T04:17:45.462Z,93764.00
2023-04-01T04:18:45.502Z,93762.00
2023-04-01T04:19:45.564Z,93766.00
2023-04-01T04:20:45.611Z,93766.00
2023-04-01T04:21:45.684Z,93768.00
2023-04-01T04:22:45.729Z,93772.00
2023-04-01T04:23:45.724Z,93774.00
2023-04-01T04:24:45.793Z,93778.00
2023-04-01T04:25:45.874Z,93778.00
2023-04-01T04:26:45.912Z,93784.00
2023-04-01T04:27:46.942Z,93790.00
2023-04-01T04:28:46.015Z,93792.00
2023-04-01T04:29:46.057Z,93794.00
2023-04-01T04:30:46.181Z,93792.00
2023-04-01T04:31:46.160Z,93790.00
2023-04-01T04:32:46.253Z,93790.00
2023-04-01T04:33:46.212Z,93792.00
2023-04-01T04:34:46.273Z,93796.00
2023-04-01T04:35:46.294Z,93794.00
2023-04-01T04:36:46.341Z,93798.00
2023-04-01T04:37:46.388Z,93798.00
2023-04-01T04:38:46.460Z,93798.00
2023-04-01T04:39:46.452Z,93796.00
2023-04-01T04:40:46.508Z,93790.00
2023-04-01T04:41:46.521Z,93794.00
2023-04-01T04:42:46.585Z,93796.00
2023-04-01T04:43:46.585Z,93800.00
2023-04-01T04:44:46.629Z,93796.00
2023-04-01T04:45:46.697Z,93794.00
2023-04-01T04:46:46.785Z,93794.00
2023-04-01T04:47:46.803Z,93786.00
2023-04-01T04:48:46.831Z,93790.00
2023-04-01T04:49:46.871Z,93796.00
2023-04-01T04:50:46.889Z,93798.00
2023-04-01T04:51:46.900Z,93798.00
2023-04-01T04:52:46.950Z,93800.00
2023-04-01T04:53:47.007Z,93800.00
2023-04-01T04:54:47.013Z,93802.00
2023-04-01T04:55:47.079Z,93804.00
2023-04-01T04:56:47.164Z,93802.00
2023-04-01T04:57:47.206Z,93802.00
2023-04-01T04:58:47.245Z,93800.00
2023-04-01T04:59:47.250Z,93798.00
2023-04-01T05:00:47.316Z,93798.00
2023-04-01T05:01:47.605Z,93798.00
2023-04-01T05:02:47.530Z,93796.00
2023-04-01T05:03:47.494Z,93796.00
2023-04-01T05:04:47.956Z,93802.00
2023-04-01T05:05:47.494Z,93804.00
2023-04-01T05:06:47.559Z,93808.00
2023-04-01T05:07:47.567Z,93806.00
2023-04-01T05:08:47.624Z,93810.00
2023-04-01T05:09:47.688Z,93810.00
2023-04-01T05:10:47.709Z,93811.00
2023-04-01T05:11:47.908Z,93817.00
2023-04-01T05:12:47.810Z,93817.00
2023-04-01T05:13:47.765Z,93817.00
2023-04-01T05:14:47.777Z,93817.00
2023-04-01T05:15:47.767Z,93821.00
2023-04-01T05:16:47.838Z,93821.00
2023-04-01T05:17:47.840Z,93819.00
2023-04-01T05:18:47.811Z,93817.00
2023-04-01T05:19:47.804Z,93817.00
2023-04-01T05:20:47.846Z,93815.00
2023-04-01T05:21:47.972Z,93813.00
2023-04-01T05:22:47.874Z,93813.00
2023-04-01T05:23:47.922Z,93813.00
2023-04-01T05:24:48.043Z,93815.00
2023-04-01T05:25:47.938Z,93813.00
2023-04-01T05:26:47.943Z,93813.00
2023-04-01T05:27:48.017Z,93811.00
2023-04-01T05:28:48.009Z,93811.00
2023-04-01T05:29:48.027Z,93817.00
2023-04-01T05:30:48.128Z,93821.00
2023-04-01T05:31:48.098Z,93823.00
2023-04-01T05:32:48.278Z,93823.00
2023-04-01T05:33:48.201Z,93823.00
2023-04-01T05:34:48.212Z,93821.00
2023-04-01T05:35:48.331Z,93821.00
2023-04-01T05:36:48.273Z,93821.00
2023-04-01T05:37:48.344Z,93821.00
2023-04-01T05:38:48.335Z,93819.00
2023-04-01T05:39:48.345Z,93819.00
2023-04-01T05:40:48.417Z,93815.00
2023-04-01T05:41:48.508Z,93813.00
2023-04-01T05:42:48.518Z,93815.00
2023-04-01T05:43:48.626Z,93811.00
2023-04-01T05:44:48.596Z,93813.00
2023-04-01T05:45:48.676Z,93815.00
2023-04-01T05:46:48.701Z,93811.00
2023-04-01T05:47:48.754Z,93815.00
2023-04-01T05:48:48.772Z,93813.00
2023-04-01T05:49:48.818Z,93813.00
2023-04-01T05:50:48.888Z,93813.00
2023-04-01T05:51:48.944Z,93813.00
2023-04-01T05:52:48.952Z,93817.00
2023-04-01T05:53:49.022Z,93819.00
2023-04-01T05:54:49.081Z,93821.00
2023-04-01T05:55:49.139Z,93823.00
2023-04-01T05:56:49.236Z,93825.00
2023-04-01T05:57:49.244Z,93825.00
2023-04-01T05:58:49.299Z,93825.00
2023-04-01T05:59:49.333Z,93827.00
2023-04-01T06:00:56.051Z,93829.00
2023-04-01T06:01:50.392Z,93829.00
2023-04-01T06:02:49.437Z,93831.00
2023-04-01T06:03:49.571Z,93829.00
2023-04-01T06:04:49.341Z,93827.00
2023-04-01T06:05:49.353Z,93825.00
2023-04-01T06:06:49.348Z,93827.00
2023-04-01T06:07:49.351Z,93825.00
2023-04-01T06:08:49.313Z,93825.00
2023-04-01T06:09:49.363Z,93829.00
2023-04-01T06:10:49.362Z,93829.00
2023-04-01T06:11:49.483Z,93831.00
2023-04-01T06:12:49.482Z,93829.00
2023-04-01T06:13:49.553Z,93829.00
2023-04-01T06:14:49.604Z,93833.00
2023-04-01T06:15:49.720Z,93839.00
2023-04-01T06:16:49.727Z,93835.00
2023-04-01T06:17:49.854Z,93833.00
2023-04-01T06:18:49.831Z,93835.00
2023-04-01T06:19:49.937Z,93835.00
2023-04-01T06:20:49.943Z,93835.00
2023-04-01T06:21:50.013Z,93837.00
2023-04-01T06:22:50.101Z,93839.00
2023-04-01T06:23:50.137Z,93839.00
2023-04-01T06:24:50.177Z,93851.00
2023-04-01T06:25:50.199Z,93851.00
2023-04-01T06:26:50.249Z,93851.00
2023-04-01T06:27:50.304Z,93849.00
2023-04-01T06:28:50.318Z,93839.00
2023-04-01T06:29:50.423Z,93839.00
2023-04-01T06:30:50.433Z,93837.00
2023-04-01T06:31:51.197Z,93837.00
2023-04-01T06:32:50.660Z,93839.00
2023-04-01T06:33:50.625Z,93855.00
2023-04-01T06:34:50.674Z,93856.00
2023-04-01T06:35:50.802Z,93855.00
2023-04-01T06:36:50.779Z,93855.00
2023-04-01T06:37:50.781Z,93853.00
2023-04-01T06:38:50.843Z,93849.00
2023-04-01T06:39:50.904Z,93837.00
2023-04-01T06:40:51.038Z,93837.00
2023-04-01T06:41:51.025Z,93833.00
2023-04-01T06:42:51.132Z,93825.00
2023-04-01T06:43:51.162Z,93819.00
2023-04-01T06:44:51.209Z,93815.00
2023-04-01T06:45:52.047Z,93810.00
2023-04-01T06:46:51.272Z,93811.00
2023-04-01T06:47:51.387Z,93811.00
2023-04-01T06:48:51.375Z,93810.00
2023-04-01T06:49:51.503Z,93810.00
2023-04-01T06:50:51.426Z,93810.00
2023-04-01T06:51:51.472Z,93811.00
2023-04-01T06:52:51.505Z,93815.00
2023-04-01T06:53:51.582Z,93823.00
2023-04-01T06:54:51.638Z,93823.00
2023-04-01T06:55:51.631Z,93821.00
2023-04-01T06:56:51.683Z,93819.00
2023-04-01T06:57:51.699Z,93817.00
2023-04-01T06:58:51.739Z,93815.00
2023-04-01T06:59:51.747Z,93815.00
2023-04-01T07:00:52.068Z,93819.00
2023-04-01T07:01:51.827Z,93823.00
2023-04-01T07:02:51.802Z,93825.00
2023-04-01T07:03:51.782Z,93823.00
2023-04-01T07:04:51.859Z,93823.00
2023-04-01T07:05:51.910Z,93821.00
2023-04-01T07:06:54.561Z,93821.00
2023-04-01T07:07:51.967Z,93819.00
2023-04-01T07:08:51.911Z,93821.00
2023-04-01T07:09:51.995Z,93821.00
2023-04-01T07:10:51.926Z,93821.00
2023-04-01T07:11:51.995Z,93821.00
2023-04-01T07:12:51.907Z,93821.00
2023-04-01T07:13:51.922Z,93823.00
2023-04-01T07:14:51.946Z,93823.00
2023-04-01T07:15:51.915Z,93823.00
2023-04-01T07:16:51.925Z,93821.00
2023-04-01T07:17:51.927Z,93821.00
2023-04-01T07:18:51.887Z,93825.00
2023-04-01T07:19:51.880Z,93825.00
2023-04-01T07:20:51.896Z,93825.00
2023-04-01T07:21:51.894Z,93821.00
2023-04-01T07:22:51.899Z,93823.00
2023-04-01T07:23:51.879Z,93821.00
2023-04-01T07:24:51.850Z,93819.00
2023-04-01T07:25:51.809Z,93821.00
2023-04-01T07:26:51.817Z,93819.00
2023-04-01T07:27:51.827Z,93821.00
2023-04-01T07:28:51.819Z,93819.00
2023-04-01T07:29:51.761Z,93819.00
2023-04-01T07:30:51.878Z,93815.00
2023-04-01T07:31:51.869Z,93819.00
2023-04-01T07:32:51.897Z,93819.00
2023-04-01T07:33:51.833Z,93819.00
2023-04-01T07:34:51.781Z,93823.00
2023-04-01T07:35:51.910Z,93825.00
2023-04-01T07:36:51.746Z,93823.00
2023-04-01T07:37:51.728Z,93825.00
2023-04-01T07:38:51.775Z,93823.00
2023-04-01T07:39:51.718Z,93827.00
2023-04-01T07:40:51.722Z,93827.00
2023-04-01T07:41:51.735Z,93831.00
2023-04-01T07:42:51.735Z,93833.00
2023-04-01T07:43:51.740Z,93837.00
2023-04-01T07:44:51.646Z,93835.00
2023-04-01T07:45:51.816Z,93833.00
2023-04-01T07:46:51.729Z,93833.00
2023-04-01T07:47:51.807Z,93829.00
2023-04-01T07:48:51.676Z,93829.00
2023-04-01T07:49:51.674Z,93833.00
2023-04-01T07:50:53.137Z,93831.00
2023-04-01T07:51:51.692Z,93831.00
2023-04-01T07:52:51.699Z,93835.00
2023-04-01T07:53:51.676Z,93831.00
2023-04-01T07:54:51.702Z,93831.00
2023-04-01T07:55:51.628Z,93831.00
2023-04-01T07:56:51.715Z,93837.00
2023-04-01T07:57:51.805Z,93837.00
2023-04-01T07:58:51.845Z,93841.00
2023-04-01T07:59:51.872Z,93839.00
2023-04-01T08:00:52.582Z,93841.00
2023-04-01T08:01:51.970Z,93839.00
2023-04-01T08:02:52.172Z,93841.00
2023-04-01T08:03:52.259Z,93841.00
2023-04-01T08:04:52.136Z,93835.00
2023-04-01T08:05:52.173Z,93829.00
2023-04-01T08:06:52.258Z,93829.00
2023-04-01T08:07:52.272Z,93831.00
2023-04-01T08:08:52.416Z,93835.00
2023-04-01T08:09:52.336Z,93831.00
2023-04-01T08:10:52.437Z,93829.00
2023-04-01T08:11:52.518Z,93829.00
2023-04-01T08:12:52.456Z,93827.00
2023-04-01T08:13:52.563Z,93825.00
2023-04-01T08:14:52.532Z,93821.00
2023-04-01T08:15:52.660Z,93825.00
2023-04-01T08:16:54.455Z,93821.00
2023-04-01T08:17:52.620Z,93819.00
2023-04-01T08:18:52.688Z,93817.00
2023-04-01T08:19:52.598Z,93819.00
2023-04-01T08:20:52.616Z,93817.00
2023-04-01T08:21:52.703Z,93815.00
2023-04-01T08:22:52.619Z,93815.00
2023-04-01T08:23:52.731Z,93819.00
2023-04-01T08:24:52.719Z,93815.00
2023-04-01T08:25:52.743Z,93815.00
2023-04-01T08:26:52.768Z,93815.00
2023-04-01T08:27:52.849Z,93810.00
2023-04-01T08:28:52.876Z,93808.00
2023-04-01T08:29:52.962Z,93806.00
2023-04-01T08:30:52.992Z,93798.00
2023-04-01T08:31:53.083Z,93794.00
2023-04-01T08:32:53.210Z,93798.00
2023-04-01T08:33:53.161Z,93796.00
2023-04-01T08:34:53.219Z,93796.00
2023-04-01T08:35:53.233Z,93796.00
2023-04-01T08:36:53.281Z,93792.00
2023-04-01T08:37:53.377Z,93796.00
2023-04-01T08:38:53.359Z,93798.00
2023-04-01T08:39:53.343Z,93796.00
2023-04-01T08:40:53.419Z,93796.00
2023-04-01T08:41:53.416Z,93794.00
2023-04-01T08:42:53.425Z,93792.00
2023-04-01T08:43:53.471Z,93792.00
2023-04-01T08:44:53.466Z,93794.00
2023-04-01T08:45:53.525Z,93794.00
2023-04-01T08:46:53.489Z,93794.00
2023-04-01T08:47:53.567Z,93788.00
2023-04-01T08:48:53.458Z,93794.00
2023-04-01T08:49:53.529Z,93792.00
2023-04-01T08:50:53.457Z,93792.00
2023-04-01T08:51:53.628Z,93790.00
2023-04-01T08:52:53.606Z,93790.00
2023-04-01T08:53:53.652Z,93792.00
2023-04-01T08:54:53.652Z,93794.00
2023-04-01T08:55:53.764Z,93796.00
2023-04-01T08:56:53.825Z,93794.00
2023-04-01T08:57:54.707Z,93794.00
2023-04-01T08:58:53.888Z,93792.00
2023-04-01T08:59:53.967Z,93788.00
2023-04-01T09:00:54.118Z,93790.00
2023-04-01T09:01:54.138Z,93794.00
2023-04-01T09:02:54.289Z,93792.00
2023-04-01T09:03:54.271Z,93794.00
2023-04-01T09:04:54.237Z,93794.00
2023-04-01T09:05:54.335Z,93796.00
2023-04-01T09:06:54.346Z,93796.00
2023-04-01T09:07:54.353Z,93794.00
2023-04-01T09:08:54.407Z,93790.00
2023-04-01T09:09:54.442Z,93788.00
2023-04-01T09:10:54.481Z,93790.00
2023-04-01T09:11:54.636Z,93786.00
2023-04-01T09:12:54.555Z,93788.00
2023-04-01T09:13:54.608Z,93788.00
2023-04-01T09:14:54.623Z,93786.00
2023-04-01T09:15:54.677Z,93778.00
2023-04-01T09:16:54.638Z,93778.00
2023-04-01T09:17:54.764Z,93772.00
2023-04-01T09:18:54.726Z,93768.00
2023-04-01T09:19:54.746Z,93770.00
2023-04-01T09:20:54.704Z,93770.00
2023-04-01T09:21:54.751Z,93770.00
2023-04-01T09:22:54.760Z,93774.00
2023-04-01T09:23:54.870Z,93774.00
2023-04-01T09:24:54.895Z,93772.00
2023-04-01T09:25:55.056Z,93768.00
2023-04-01T09:26:55.014Z,93764.00
2023-04-01T09:27:55.067Z,93764.00
2023-04-01T09:28:55.013Z,93764.00
2023-04-01T09:29:55.021Z,93762.00
2023-04-01T09:30:55.064Z,93766.00
2023-04-01T09:31:55.031Z,93762.00
2023-04-01T09:32:55.016Z,93759.00
2023-04-01T09:33:55.055Z,93755.00
2023-04-01T09:34:55.074Z,93759.00
2023-04-01T09:35:55.072Z,93755.00
2023-04-01T09:36:55.149Z,93755.00
2023-04-01T09:37:55.191Z,93753.00
2023-04-01T09:38:55.262Z,93749.00
2023-04-01T09:39:55.291Z,93745.00
2023-04-01T09:40:55.256Z,93749.00
2023-04-01T09:41:55.310Z,93747.00
2023-04-01T09:42:55.489Z,93745.00
2023-04-01T09:43:55.339Z,93743.00
2023-04-01T09:44:55.380Z,93743.00
2023-04-01T09:45:55.451Z,93741.00
2023-04-01T09:46:55.436Z,93739.00
2023-04-01T09:47:55.506Z,93735.00
2023-04-01T09:48:55.574Z,93731.00
2023-04-01T09:49:55.671Z,93727.00
2023-04-01T09:50:55.689Z,93729.00
2023-04-01T09:51:55.732Z,93731.00
2023-04-01T09:52:55.790Z,93733.00
2023-04-01T09:53:55.845Z,93729.00
2023-04-01T09:54:55.954Z,93725.00
2023-04-01T09:55:56.009Z,93725.00
2023-04-01T09:56:56.083Z,93723.00
2023-04-01T09:57:56.038Z,93719.00
2023-04-01T09:58:56.094Z,93721.00
2023-04-01T09:59:56.155Z,93713.00
2023-04-01T10:00:56.219Z,93715.00
2023-04-01T10:02:56.431Z,93715.00
2023-04-01T10:03:56.382Z,93711.00
2023-04-01T10:04:56.463Z,93711.00
2023-04-01T10:05:56.557Z,93713.00
2023-04-01T10:06:56.506Z,93713.00
2023-04-01T10:07:56.561Z,93713.00
2023-04-01T10:08:56.624Z,93711.00
2023-04-01T10:09:56.718Z,93711.00
2023-04-01T10:10:56.675Z,93706.00
2023-04-01T10:11:56.731Z,93706.00
2023-04-01T10:12:56.780Z,93706.00
2023-04-01T10:13:56.798Z,93715.00
2023-04-01T10:14:56.882Z,93709.00
2023-04-01T10:15:56.948Z,93711.00
2023-04-01T10:18:23.429Z,93702.00
2023-04-01T10:19:15.958Z,93698.00
2023-04-01T10:20:15.863Z,93704.00
2023-04-01T10:21:15.916Z,93698.00
2023-04-01T10:22:15.904Z,93694.00
2023-04-01T10:23:15.865Z,93692.00
2023-04-01T10:24:15.852Z,93690.00
2023-04-01T10:25:15.868Z,93690.00
2023-04-01T10:26:15.817Z,93692.00
2023-04-01T10:27:15.884Z,93688.00
2023-04-01T10:28:15.811Z,93694.00
2023-04-01T10:29:15.818Z,93690.00
2023-04-01T10:30:15.794Z,93686.00
2023-04-01T10:31:15.800Z,93688.00
2023-04-01T10:32:15.885Z,93686.00
2023-04-01T10:33:15.746Z,93684.00
2023-04-01T10:34:15.790Z,93688.00
2023-04-01T10:35:15.777Z,93688.00
2023-04-01T10:36:15.799Z,93686.00
2023-04-01T10:37:15.842Z,93680.00
2023-04-01T10:38:15.881Z,93680.00
2023-04-01T10:39:15.898Z,93680.00
2023-04-01T10:40:15.974Z,93678.00
2023-04-01T10:41:15.964Z,93678.00
2023-04-01T10:42:16.012Z,93678.00
2023-04-01T10:43:16.012Z,93676.00
2023-04-01T10:44:16.045Z,93670.00
2023-04-01T10:45:16.122Z,93672.00
2023-04-01T10:46:17.091Z,93668.00
2023-04-01T10:47:16.172Z,93668.00
2023-04-01T10:48:16.236Z,93666.00
2023-04-01T10:49:16.218Z,93664.00
2023-04-01T10:50:16.282Z,93664.00
2023-04-01T10:51:16.359Z,93670.00
2023-04-01T10:52:16.283Z,93670.00
2023-04-01T10:53:16.416Z,93668.00
2023-04-01T10:54:16.380Z,93664.00
2023-04-01T10:55:16.380Z,93668.00
2023-04-01T10:56:16.507Z,93664.00
2023-04-01T10:57:16.478Z,93664.00
2023-04-01T10:58:16.462Z,93661.00
2023-04-01T10:59:16.566Z,93662.00
2023-04-01T11:00:16.502Z,93657.00
2023-04-01T11:01:16.583Z,93655.00
2023-04-01T11:02:16.643Z,93657.00
2023-04-01T11:03:16.585Z,93655.00
2023-04-01T11:04:16.628Z,93655.00
2023-04-01T11:05:17.669Z,93655.00
2023-04-01T11:06:16.690Z,93653.00
2023-04-01T11:07:16.656Z,93651.00
2023-04-01T11:08:16.605Z,93649.00
2023-04-01T11:09:16.618Z,93651.00
2023-04-01T11:10:16.574Z,93649.00
2023-04-01T11:11:16.621Z,93643.00
2023-04-01T11:12:16.613Z,93641.00
2023-04-01T11:13:16.595Z,93645.00
2023-04-01T11:14:16.652Z,93641.00
2023-04-01T11:15:16.544Z,93639.00
2023-04-01T11:16:17.739Z,93641.00
2023-04-01T11:17:16.561Z,93635.00
2023-04-01T11:18:16.566Z,93639.00
2023-04-01T11:19:16.580Z,93637.00
2023-04-01T11:20:16.544Z,93637.00
2023-04-01T11:21:16.557Z,93637.00
2023-04-01T11:22:16.560Z,93635.00
2023-04-01T11:23:16.654Z,93627.00
2023-04-01T11:24:16.564Z,93629.00
2023-04-01T11:25:16.511Z,93627.00
2023-04-01T11:26:16.530Z,93627.00
2023-04-01T11:27:16.717Z,93631.00
2023-04-01T11:28:16.599Z,93627.00
2023-04-01T11:29:16.544Z,93625.00
2023-04-01T11:30:16.508Z,93625.00
2023-04-01T11:31:16.465Z,93625.00
2023-04-01T11:32:16.522Z,93625.00
2023-04-01T11:33:17.391Z,93625.00
2023-04-01T11:34:16.599Z,93625.00
2023-04-01T11:35:16.545Z,93625.00
2023-04-01T11:36:16.426Z,93625.00
2023-04-01T11:37:16.478Z,93629.00
2023-04-01T11:38:16.556Z,93623.00
2023-04-01T11:39:16.498Z,93627.00
2023-04-01T11:40:16.565Z,93621.00
2023-04-01T11:41:16.743Z,93621.00
2023-04-01T11:42:16.581Z,93619.00
2023-04-01T11:43:26.319Z,93619.00
2023-04-01T11:44:17.635Z,93617.00
2023-04-01T11:45:16.598Z,93613.00
2023-04-01T11:46:16.695Z,93615.00
2023-04-01T11:47:16.623Z,93613.00